Latest Weather Observations for Murrurundi Gap

IDN60801

Issued at 7:13 pm EST Monday 4 July 2022 (issued every 10 minutes, with the page automatically refreshed every 10 minutes)

About weather observations | Map of weather stations | Latest weather observations for NSW | Other Formats
Station Details ID: 061392 Name: MURRURUNDI GAP AWS Lat: -31.74 Lon: 150.79 Height: 729.4 m
Data from the previous 72 hours. | See also: Recent months at Murrurundi Gap
Date/Time
EST
Temp
°C
App
Temp
°C
Dew
Point
°C
Rel
Hum
%
Delta-T
°C
Wind Press
QNH
hPa
Press
MSL
hPa
Rain since
9am
mm
Dir  Spd
km/h
Gust
km/h
Spd
kts
Gust
kts
04/07:00pm 7.2 4.8 7.2 100 0.0 WNW 9 9 5 5 1015.4 1015.6 0.2
04/06:30pm 7.1 4.0 7.1 100 0.0 WNW 13 15 7 8 1015.3 1015.4 0.2
04/06:00pm 7.2 3.3 7.2 100 0.0 W 17 20 9 11 1015.1 1015.2 0.2
04/05:30pm 7.3 3.8 7.3 100 0.0 WNW 15 20 8 11 1015.9 1016.0 0.2
04/05:00pm 7.3 4.2 7.3 100 0.0 NW 13 15 7 8 1015.4 1015.6 0.2
04/04:30pm 7.3 4.2 7.3 100 0.0 WNW 13 17 7 9 1015.2 1015.3 0.2
04/04:00pm 7.4 4.3 7.4 100 0.0 WNW 13 17 7 9 1014.8 1014.9 0.2
04/03:30pm 7.3 3.1 7.3 100 0.0 WNW 19 20 10 11 1014.6 1014.7 0.2
04/03:09pm 7.4 3.2 7.4 100 0.0 NW 19 20 10 11 1014.8 1014.9 0.2
04/03:00pm 7.3 2.9 7.3 100 0.0 NW 20 22 11 12 1014.8 1014.9 0.2
04/02:54pm 7.3 2.9 7.3 100 0.0 NW 20 24 11 13 1014.7 1014.8 0.2
04/02:40pm 7.1 2.2 7.1 100 0.0 NW 22 28 12 15 1014.8 1014.9 0.2
04/02:30pm 7.2 2.4 7.2 100 0.0 NW 22 26 12 14 1014.7 1014.8 0.2
04/02:26pm 7.2 2.4 7.2 100 0.0 NW 22 24 12 13 1014.4 1014.5 0.2
04/02:00pm 7.0 2.1 7.0 100 0.0 NW 22 26 12 14 1013.8 1013.9 0.2
04/01:30pm 7.0 3.1 7.0 100 0.0 NW 17 22 9 12 1013.8 1013.9 0.2
04/01:00pm 6.9 1.6 6.9 100 0.0 NW 24 28 13 15 1014.8 1014.9 0.2
04/12:30pm 6.7 1.4 6.7 100 0.0 NW 24 30 13 16 1015.4 1015.6 0.2
04/12:00pm 6.6 0.9 6.6 100 0.0 NW 26 30 14 16 1015.5 1015.7 0.2
04/11:30am 6.3 0.1 6.3 100 0.0 NW 28 32 15 17 1015.2 1015.3 0.2
04/11:00am 6.1 0.3 6.1 100 0.0 NW 26 32 14 17 1015.4 1015.6 0.0
04/10:30am 6.2 0.0 6.2 100 0.0 NW 28 33 15 18 1015.2 1015.3 0.0
04/10:00am 5.9 -0.7 5.9 100 0.0 NW 30 35 16 19 1015.8 1015.9 0.0
04/09:30am 5.4 -1.3 5.4 100 0.0 NW 30 33 16 18 1015.3 1015.4 0.0
04/09:00am 5.1 -2.3 5.1 100 0.0 NW 33 35 18 19 1015.1 1015.2 6.8
04/08:30am 4.9 -2.3 4.9 100 0.0 NW 32 35 17 19 1014.9 1015.0 6.6
04/08:00am 4.9 -1.9 4.9 100 0.0 NW 30 35 16 19 1014.8 1014.9 6.4
04/07:30am 4.8 -2.4 4.8 100 0.0 WNW 32 37 17 20 1014.8 1014.9 5.8
04/07:00am 5.0 -2.8 5.0 100 0.0 WNW 35 39 19 21 1014.5 1014.6 4.6
04/06:30am 5.0 -2.2 5.0 100 0.0 NW 32 35 17 19 1014.5 1014.6 4.0
04/06:00am 5.1 -2.1 5.1 100 0.0 NW 32 39 17 21 1014.5 1014.6 3.6
04/05:30am 5.2 -2.2 5.2 100 0.0 NW 33 43 18 23 1014.0 1014.1 3.6
04/05:00am 5.2 -1.6 5.2 100 0.0 NW 30 35 16 19 1013.9 1014.0 3.2
04/04:30am 5.3 -2.4 5.3 100 0.0 NW 35 37 19 20 1013.5 1013.6 3.2
04/04:00am 5.3 -1.1 5.3 100 0.0 NW 28 33 15 18 1013.5 1013.6 3.0
04/03:30am 5.5 -1.2 5.5 100 0.0 NW 30 33 16 18 1013.5 1013.6 2.6
04/03:00am 5.6 -1.1 5.6 100 0.0 WNW 30 35 16 19 1013.6 1013.7 2.2
04/02:50am 5.6 -1.1 5.6 100 0.0 NW 30 35 16 19 1013.6 1013.7 1.8
04/02:30am 5.8 -0.5 5.7 99 0.0 NW 28 32 15 17 1014.0 1014.1 0.6
04/02:00am 6.0 -0.3 5.9 99 0.0 NW 28 32 15 17 1014.0 1014.1 0.4
04/01:50am 6.0 0.5 5.9 99 0.0 NW 24 28 13 15 1014.0 1014.1 0.4
04/01:30am 6.2 0.0 6.1 99 0.0 WNW 28 33 15 18 1014.4 1014.5 0.4
04/01:00am 6.3 -0.3 6.2 99 0.0 NW 30 33 16 18 1014.4 1014.5 0.2
04/12:43am 6.4 0.6 6.3 99 0.0 NW 26 32 14 17 1014.7 1014.8 0.2
04/12:30am 6.5 0.0 6.4 99 0.0 NW 30 33 16 18 1014.5 1014.6 0.2
04/12:22am 6.4 -0.1 6.3 99 0.0 NW 30 35 16 19 1014.6 1014.7 0.2
04/12:08am 6.7 -0.4 6.6 99 0.0 NW 33 37 18 20 1014.6 1014.7 0.2
04/12:00am 6.7 -0.4 6.6 99 0.0 NW 33 37 18 20 1014.6 1014.7 0.2
 
Date/Time
EST
Temp
°C
App
Temp
°C
Dew
Point
°C
Rel
Hum
%
Delta-T
°C
Wind Press
QNH
hPa
Press
MSL
hPa
Rain since
9am
mm
Dir  Spd
km/h
Gust
km/h
Spd
kts
Gust
kts
03/11:45pm 6.8 -0.2 6.7 99 0.0 NW 33 39 18 21 1014.7 1014.8 0.2
03/11:30pm 7.0 0.2 7.0 100 0.0 NW 32 37 17 20 1014.9 1015.0 0.2
03/11:00pm 7.5 1.6 7.5 100 0.0 NNW 28 30 15 16 1015.1 1015.2 0.2
03/10:53pm 7.6 2.1 7.6 100 0.0 NW 26 30 14 16 1015.0 1015.1 0.2
03/10:41pm 7.7 2.6 7.7 100 0.0 NNW 24 26 13 14 1015.2 1015.3 0.0
03/10:30pm 7.8 3.7 7.8 100 0.0 NW 19 24 10 13 1015.4 1015.6 0.0
03/10:06pm 7.7 3.6 7.7 100 0.0 NW 19 20 10 11 1015.2 1015.3 0.0
03/10:04pm 7.7 3.6 7.7 100 0.0 NW 19 20 10 11 1015.2 1015.3 0.0
03/10:00pm 7.7 3.9 7.7 100 0.0 NW 17 20 9 11 1015.2 1015.3 0.0
03/09:30pm 7.7 3.4 7.7 100 0.0 NW 20 22 11 12 1015.3 1015.4 0.0
03/09:00pm 7.6 3.8 7.6 100 0.0 NW 17 20 9 11 1015.9 1016.0 0.0
03/08:30pm 7.6 3.8 7.6 100 0.0 NW 17 19 9 10 1016.1 1016.2 0.0
03/08:00pm 7.7 3.9 7.7 100 0.0 NNW 17 20 9 11 1016.1 1016.2 0.0
03/07:31pm 7.8 4.0 7.7 99 0.0 NW 17 20 9 11 1016.0 1016.1 0.0
03/07:30pm 7.9 4.2 7.8 99 0.0 NW 17 20 9 11 1016.0 1016.1 0.0
03/07:00pm 7.9 4.2 7.8 99 0.0 NNW 17 19 9 10 1015.8 1015.9 0.0
03/06:34pm 7.9 4.2 7.9 100 0.0 NW 17 19 9 10 1015.5 1015.7 0.0
03/06:30pm 7.9 4.2 7.9 100 0.0 NW 17 20 9 11 1015.5 1015.7 0.0
03/06:16pm 7.9 4.2 7.9 100 0.0 NW 17 20 9 11 1015.4 1015.6 0.0
03/06:00pm 7.8 4.4 7.8 100 0.0 NW 15 17 8 9 1015.4 1015.6 0.0
03/05:30pm 7.8 4.1 7.8 100 0.0 NW 17 19 9 10 1015.3 1015.4 0.0
03/05:12pm 7.7 3.9 7.7 100 0.0 NW 17 19 9 10 1015.2 1015.3 0.0
03/05:00pm 7.7 4.7 7.7 100 0.0 NW 13 17 7 9 1015.2 1015.3 0.0
03/04:30pm 7.9 4.6 7.9 100 0.0 NW 15 20 8 11 1015.3 1015.4 0.0
03/04:28pm 7.9 4.6 7.9 100 0.0 NW 15 20 8 11 1015.3 1015.4 0.0
03/04:23pm 7.8 4.1 7.8 100 0.0 NW 17 20 9 11 1015.2 1015.3 0.0
03/04:20pm 7.8 4.1 7.8 100 0.0 NW 17 20 9 11 1015.2 1015.3 0.0
03/04:11pm 7.8 4.4 7.8 100 0.0 NW 15 17 8 9 1015.3 1015.4 0.0
03/04:00pm 7.8 4.1 7.8 100 0.0 WNW 17 20 9 11 1015.3 1015.4 0.0
03/03:43pm 7.8 3.5 7.8 100 0.0 NW 20 22 11 12 1015.0 1015.1 0.0
03/03:33pm 7.9 3.8 7.9 100 0.0 NW 19 20 10 11 1015.1 1015.2 0.0
03/03:30pm 8.0 3.9 8.0 100 0.0 NW 19 20 10 11 1015.1 1015.2 0.0
03/03:00pm 7.9 4.2 7.9 100 0.0 NW 17 20 9 11 1015.3 1015.4 0.0
03/02:30pm 7.7 3.9 7.7 100 0.0 NW 17 20 9 11 1015.5 1015.7 0.0
03/02:00pm 7.4 3.0 7.4 100 0.0 NW 20 26 11 14 1015.5 1015.7 0.0
03/01:30pm 7.5 3.1 7.5 100 0.0 NW 20 26 11 14 1015.8 1015.9 0.0
03/01:00pm 7.6 2.9 7.6 100 0.0 NW 22 24 12 13 1016.1 1016.2 0.0
03/12:30pm 7.8 3.1 7.8 100 0.0 NW 22 24 12 13 1016.2 1016.3 0.0
03/12:00pm 7.6 3.2 7.6 100 0.0 NW 20 26 11 14 1016.6 1016.8 0.0
03/11:30am 7.8 3.5 7.8 100 0.0 NW 20 24 11 13 1016.9 1017.1 0.0
03/11:00am 7.6 3.2 7.6 100 0.0 NW 20 24 11 13 1017.1 1017.3 0.0
03/10:30am 7.2 2.8 7.2 100 0.0 NW 20 24 11 13 1017.7 1017.8 0.0
03/10:00am 7.0 1.7 7.0 100 0.0 NW 24 28 13 15 1017.6 1017.7 0.0
03/09:30am 6.7 1.8 6.7 100 0.0 NW 22 26 12 14 1017.6 1017.7 0.0
03/09:00am 6.6 1.6 6.6 100 0.0 NW 22 28 12 15 1017.6 1017.7 5.8
03/08:30am 6.5 1.5 6.5 100 0.0 NW 22 24 12 13 1017.3 1017.4 5.6
03/08:00am 6.5 1.9 6.5 100 0.0 NW 20 24 11 13 1017.0 1017.2 5.6
03/07:30am 6.5 1.9 6.5 100 0.0 NW 20 26 11 14 1016.9 1017.1 5.6
03/07:00am 7.1 2.8 7.1 100 0.0 NW 19 20 10 11 1017.0 1017.2 5.6
03/06:30am 7.6 4.2 7.6 100 0.0 NW 15 20 8 11 1016.6 1016.8 5.6
03/06:00am 7.6 4.2 7.6 100 0.0 NW 15 15 8 8 1016.4 1016.5 5.6
03/05:30am 7.5 4.5 7.5 100 0.0 WNW 13 15 7 8 1016.2 1016.3 5.4
03/05:00am 7.4 3.9 7.4 100 0.0 WNW 15 17 8 9 1016.1 1016.2 5.4
03/04:30am 7.4 4.7 7.4 100 0.0 NW 11 13 6 7 1016.2 1016.3 5.4
03/04:00am 7.4 4.3 7.4 100 0.0 NW 13 17 7 9 1016.4 1016.5 5.2
03/03:30am 7.5 4.1 7.5 100 0.0 NW 15 17 8 9 1016.6 1016.8 4.8
03/03:00am 7.5 4.5 7.5 100 0.0 NW 13 17 7 9 1016.9 1017.1 3.2
03/02:30am 7.9 4.9 7.9 100 0.0 NW 13 17 7 9 1017.0 1017.2 1.8
03/02:00am 8.3 6.2 8.3 100 0.0 NW 9 15 5 8 1017.4 1017.5 1.2
03/01:30am 8.4 5.9 8.4 100 0.0 NW 11 13 6 7 1017.3 1017.4 0.8
03/01:00am 8.9 8.7 8.9 100 0.0 CALM 0 2 0 1 1017.4 1017.5 0.6
03/12:30am 8.9 7.0 8.9 100 0.0 ESE 9 11 5 6 1017.5 1017.6 0.6
03/12:00am 8.9 6.6 8.9 100 0.0 SE 11 13 6 7 1017.8 1018.0 0.4
 
Date/Time
EST
Temp
°C
App
Temp
°C
Dew
Point
°C
Rel
Hum
%
Delta-T
°C
Wind Press
QNH
hPa
Press
MSL
hPa
Rain since
9am
mm
Dir  Spd
km/h
Gust
km/h
Spd
kts
Gust
kts
02/11:35pm 8.9 6.2 8.9 100 0.0 ESE 13 13 7 7 1017.8 1018.0 0.4
02/11:32pm 8.9 6.6 8.9 100 0.0 ESE 11 13 6 7 1017.8 1018.0 0.4
02/11:30pm 8.9 6.6 8.9 100 0.0 ESE 11 13 6 7 1017.8 1018.0 0.4
02/11:00pm 8.9 6.6 8.9 100 0.0 ESE 11 13 6 7 1017.9 1018.1 0.0
02/10:30pm 8.9 6.2 8.9 100 0.0 SE 13 15 7 8 1017.8 1018.0 0.0
02/10:00pm 9.0 5.2 9.0 100 0.0 SE 19 22 10 12 1017.8 1018.0 0.0
02/09:30pm 9.0 5.2 9.0 100 0.0 SE 19 20 10 11 1017.9 1018.1 0.0
02/09:00pm 9.0 5.2 9.0 100 0.0 SE 19 20 10 11 1018.0 1018.2 0.0
02/08:30pm 8.9 5.8 8.9 100 0.0 SE 15 17 8 9 1017.9 1018.1 0.0
02/08:00pm 9.0 5.9 9.0 100 0.0 SE 15 17 8 9 1017.9 1018.1 0.0
02/07:30pm 9.1 6.1 9.1 100 0.0 ESE 15 20 8 11 1018.0 1018.2 0.0
02/07:00pm 9.1 6.1 9.1 100 0.0 SE 15 19 8 10 1018.0 1018.2 0.0
02/06:30pm 9.2 6.2 9.2 100 0.0 SE 15 19 8 10 1018.0 1018.2 0.0
02/06:00pm 9.1 6.0 9.0 99 0.1 ESE 15 17 8 9 1017.8 1018.0 0.0
02/05:58pm 9.0 5.9 8.9 99 0.1 ESE 15 17 8 9 1017.8 1018.0 0.0
02/05:55pm 9.1 6.4 9.0 99 0.1 ESE 13 17 7 9 1017.8 1018.0 0.0
02/05:50pm 9.2 6.5 9.1 99 0.1 SE 13 17 7 9 1017.7 1017.8 0.0
02/05:30pm 9.4 6.8 9.3 99 0.1 SE 13 15 7 8 1017.7 1017.8 0.0
02/05:07pm 9.5 6.2 9.4 99 0.1 ESE 17 20 9 11 1017.5 1017.6 0.0
02/05:00pm 9.5 6.5 9.4 99 0.1 SE 15 19 8 10 1017.5 1017.6 0.0
02/04:53pm 9.6 6.7 9.5 99 0.1 ESE 15 17 8 9 1017.5 1017.6 0.0
02/04:30pm 9.8 7.3 9.7 99 0.1 ESE 13 17 7 9 1017.5 1017.6 0.0
02/04:08pm 10.0 6.4 9.9 99 0.1 ESE 19 22 10 12 1017.3 1017.4 0.0
02/04:04pm 10.0 6.4 9.9 99 0.1 ESE 19 22 10 12 1017.3 1017.4 0.0
02/04:00pm 10.0 6.4 9.7 98 0.2 ESE 19 22 10 12 1017.1 1017.3 0.0
02/03:30pm 10.4 7.1 9.5 94 0.5 ESE 17 20 9 11 1017.1 1017.3 0.0
02/03:00pm 10.6 6.7 9.4 92 0.6 SE 20 24 11 13 1017.3 1017.4 0.0
02/02:30pm 10.7 7.7 10.5 99 0.1 SE 17 20 9 11 1017.5 1017.6 0.0
02/02:00pm 10.0 6.8 10.0 100 0.0 ESE 17 22 9 12 1017.8 1018.0 0.0
02/01:30pm 9.5 6.6 9.5 100 0.0 ESE 15 17 8 9 1018.1 1018.3 0.0
02/01:00pm 9.2 5.8 9.2 100 0.0 SE 17 20 9 11 1018.4 1018.6 0.0
02/12:41pm 9.3 5.9 9.3 100 0.0 SE 17 20 9 11 1018.7 1018.8 0.0
02/12:30pm 9.2 5.8 9.2 100 0.0 SE 17 20 9 11 1018.9 1019.0 0.0
02/12:00pm 8.9 5.1 8.9 100 0.0 SE 19 22 10 12 1019.3 1019.5 0.0
02/11:30am 8.6 4.7 8.6 100 0.0 ESE 19 22 10 12 1019.7 1019.9 0.0
02/11:00am 8.2 4.0 8.2 100 0.0 SE 20 26 11 14 1020.0 1020.3 0.0
02/10:30am 8.3 4.1 8.3 100 0.0 SE 20 26 11 14 1020.2 1020.4 0.0
02/10:00am 8.3 3.7 8.3 100 0.0 SE 22 26 12 14 1020.4 1020.6 0.0
02/09:30am 7.8 3.5 7.8 100 0.0 SE 20 24 11 13 1020.7 1020.9 0.0
02/09:00am 7.3 2.9 7.3 100 0.0 SE 20 24 11 13 1020.8 1021.0 9.4
02/08:30am 7.1 2.8 7.1 100 0.0 ESE 19 22 10 12 1020.6 1020.8 9.4
02/08:00am 6.9 2.4 6.9 100 0.0 SE 20 24 11 13 1020.6 1020.8 9.2
02/07:30am 6.8 1.9 6.8 100 0.0 SE 22 26 12 14 1020.5 1020.7 9.2
02/07:00am 6.8 2.3 6.8 100 0.0 SE 20 24 11 13 1020.4 1020.6 9.2
02/06:52am 6.8 2.3 6.8 100 0.0 SE 20 24 11 13 1020.3 1020.5 9.2
02/06:30am 6.7 2.1 6.7 100 0.0 SE 20 24 11 13 1020.2 1020.4 9.2
02/06:00am 6.9 2.4 6.9 100 0.0 SE 20 22 11 12 1019.9 1020.1 9.2
02/05:30am 6.9 2.6 6.9 100 0.0 ESE 19 22 10 12 1019.9 1020.1 9.2
02/05:22am 7.0 2.5 7.0 100 0.0 ESE 20 22 11 12 1020.0 1020.3 9.2
02/05:00am 6.9 3.0 6.9 100 0.0 ESE 17 20 9 11 1020.2 1020.4 9.0
02/04:37am 6.8 2.8 6.8 100 0.0 ESE 17 20 9 11 1020.2 1020.4 8.8
02/04:30am 6.8 2.8 6.8 100 0.0 ESE 17 20 9 11 1020.3 1020.5 8.8
02/04:00am 6.8 2.3 6.8 100 0.0 SE 20 26 11 14 1020.0 1020.3 8.6
02/03:30am 6.8 2.5 6.8 100 0.0 SE 19 20 10 11 1020.6 1020.8 8.6
02/03:00am 7.0 2.7 7.0 100 0.0 SE 19 22 10 12 1020.5 1020.7 8.0
02/02:30am 6.7 2.3 6.7 100 0.0 SE 19 20 10 11 1020.6 1020.8 7.0
02/02:00am 6.9 3.0 6.9 100 0.0 SE 17 20 9 11 1020.8 1021.0 6.0
02/01:30am 7.2 4.1 7.2 100 0.0 SE 13 17 7 9 1021.1 1021.3 5.0
02/01:00am 7.3 3.8 7.3 100 0.0 ESE 15 17 8 9 1021.1 1021.3 4.8
02/12:30am 7.3 3.4 7.3 100 0.0 ESE 17 19 9 10 1021.3 1021.6 4.2
02/12:00am 7.3 3.4 7.3 100 0.0 SE 17 20 9 11 1021.7 1021.9 3.4
 
Date/Time
EST
Temp
°C
App
Temp
°C
Dew
Point
°C
Rel
Hum
%
Delta-T
°C
Wind Press
QNH
hPa
Press
MSL
hPa
Rain since
9am
mm
Dir  Spd
km/h
Gust
km/h
Spd
kts
Gust
kts
01/11:30pm 7.6 3.8 7.6 100 0.0 SE 17 20 9 11 1021.9 1022.1 3.0
01/11:00pm 7.9 3.8 7.9 100 0.0 SE 19 22 10 12 1021.9 1022.1 3.0
01/10:30pm 8.0 3.9 8.0 100 0.0 SE 19 22 10 12 1022.0 1022.2 2.6
01/10:00pm 8.0 4.3 8.0 100 0.0 SE 17 20 9 11 1022.3 1022.5 2.0
01/09:30pm 8.1 4.1 8.1 100 0.0 SE 19 22 10 12 1022.2 1022.4 1.2
01/09:00pm 8.3 3.7 8.3 100 0.0 SE 22 26 12 14 1022.2 1022.4 0.6
01/08:30pm 8.2 4.0 8.2 100 0.0 SE 20 24 11 13 1022.1 1022.3 0.4
01/08:00pm 8.3 4.1 8.3 100 0.0 SSE 20 26 11 14 1022.4 1022.7 0.2
01/07:30pm 8.3 2.6 8.3 100 0.0 SSE 28 32 15 17 1022.3 1022.5 0.0

Other formats

Comma delimited format used in spreadsheet applications
http://www.bom.gov.au/fwo/IDN60801/IDN60801.95747.axf

JavaScript Object Notation format (JSON) in row-major order
http://www.bom.gov.au/fwo/IDN60801/IDN60801.95747.json

Data quality

Most of these data are generated automatically and are frequently updated. Quality checks on data are not normally performed. It is possible for incorrect values to appear. Refer to information at About Latest Weather Observations and please check the disclaimer before using these data.